sensor_id;sensor_type;location;lat;lon;timestamp;pressure;altitude;pressure_sealevel;temperature;humidity
35989;BME280;22064;42.672;23.282;2023-04-02T00:03:07;93784.13;;;8.06;100.00
35989;BME280;22064;42.672;23.282;2023-04-02T00:05:45;93778.31;;;7.94;100.00
35989;BME280;22064;42.672;23.282;2023-04-02T00:08:22;93776.78;;;7.93;100.00
35989;BME280;22064;42.672;23.282;2023-04-02T00:13:25;93781.81;;;8.04;100.00
35989;BME280;22064;42.672;23.282;2023-04-02T00:15:55;93782.78;;;7.98;100.00
35989;BME280;22064;42.672;23.282;2023-04-02T00:18:22;93777.31;;;7.95;100.00
35989;BME280;22064;42.672;23.282;2023-04-02T00:20:58;93779.94;;;8.00;100.00
35989;BME280;22064;42.672;23.282;2023-04-02T00:23:27;93788.81;;;7.77;100.00
35989;BME280;22064;42.672;23.282;2023-04-02T00:25:53;93776.78;;;7.66;100.00
35989;BME280;22064;42.672;23.282;2023-04-02T00:28:21;93786.31;;;7.87;100.00
35989;BME280;22064;42.672;23.282;2023-04-02T00:30:50;93779.31;;;7.87;100.00
35989;BME280;22064;42.672;23.282;2023-04-02T00:33:19;93786.22;;;8.04;100.00
35989;BME280;22064;42.672;23.282;2023-04-02T00:35:47;93785.25;;;8.15;100.00
35989;BME280;22064;42.672;23.282;2023-04-02T00:38:26;93778.41;;;8.36;100.00
35989;BME280;22064;42.672;23.282;2023-04-02T00:40:55;93758.59;;;8.20;100.00
35989;BME280;22064;42.672;23.282;2023-04-02T00:43:25;93775.97;;;8.56;100.00
35989;BME280;22064;42.672;23.282;2023-04-02T00:45:56;93791.03;;;8.54;100.00
35989;BME280;22064;42.672;23.282;2023-04-02T00:53:47;93778.28;;;8.53;100.00
35989;BME280;22064;42.672;23.282;2023-04-02T00:56:38;93775.78;;;8.31;100.00
35989;BME280;22064;42.672;23.282;2023-04-02T00:59:31;93776.69;;;8.15;100.00
35989;BME280;22064;42.672;23.282;2023-04-02T01:04:56;93775.75;;;8.26;100.00
35989;BME280;22064;42.672;23.282;2023-04-02T01:07:37;93772.63;;;8.24;100.00
35989;BME280;22064;42.672;23.282;2023-04-02T01:10:38;93776.81;;;8.30;100.00
35989;BME280;22064;42.672;23.282;2023-04-02T01:15:49;93772.41;;;8.30;100.00
35989;BME280;22064;42.672;23.282;2023-04-02T01:18:55;93764.53;;;8.52;100.00
35989;BME280;22064;42.672;23.282;2023-04-02T01:23:56;93772.16;;;8.64;100.00
35989;BME280;22064;42.672;23.282;2023-04-02T01:29:13;93770.97;;;8.87;100.00
35989;BME280;22064;42.672;23.282;2023-04-02T01:31:41;93784.69;;;8.77;100.00
35989;BME280;22064;42.672;23.282;2023-04-02T01:34:13;93785.44;;;8.73;100.00
35989;BME280;22064;42.672;23.282;2023-04-02T01:39:39;93782.84;;;8.78;100.00
35989;BME280;22064;42.672;23.282;2023-04-02T01:42:32;93777.41;;;8.74;100.00
35989;BME280;22064;42.672;23.282;2023-04-02T01:45:08;93776.03;;;8.62;100.00
35989;BME280;22064;42.672;23.282;2023-04-02T01:47:37;93782.97;;;8.51;100.00
35989;BME280;22064;42.672;23.282;2023-04-02T01:52:41;93767.19;;;8.58;100.00
35989;BME280;22064;42.672;23.282;2023-04-02T01:55:11;93779.63;;;8.55;100.00
35989;BME280;22064;42.672;23.282;2023-04-02T01:57:41;93771.28;;;8.53;100.00
35989;BME280;22064;42.672;23.282;2023-04-02T02:00:10;93763.44;;;8.38;100.00
35989;BME280;22064;42.672;23.282;2023-04-02T02:02:40;93757.47;;;8.43;100.00
35989;BME280;22064;42.672;23.282;2023-04-02T02:05:13;93757.03;;;8.51;100.00
35989;BME280;22064;42.672;23.282;2023-04-02T02:07:42;93756.19;;;8.45;100.00
35989;BME280;22064;42.672;23.282;2023-04-02T02:10:13;93764.41;;;8.37;100.00
35989;BME280;22064;42.672;23.282;2023-04-02T02:12:42;93769.13;;;8.40;100.00
35989;BME280;22064;42.672;23.282;2023-04-02T02:15:15;93767.63;;;8.44;100.00
35989;BME280;22064;42.672;23.282;2023-04-02T02:17:41;93764.66;;;8.36;100.00
35989;BME280;22064;42.672;23.282;2023-04-02T02:20:08;93765.03;;;8.49;100.00
35989;BME280;22064;42.672;23.282;2023-04-02T02:22:55;93780.81;;;8.43;100.00
35989;BME280;22064;42.672;23.282;2023-04-02T02:25:30;93779.28;;;8.42;100.00
35989;BME280;22064;42.672;23.282;2023-04-02T02:28:09;93785.66;;;8.34;100.00
35989;BME280;22064;42.672;23.282;2023-04-02T02:41:48;93766.19;;;7.99;100.00
35989;BME280;22064;42.672;23.282;2023-04-02T02:46:43;93777.47;;;7.83;100.00
35989;BME280;22064;42.672;23.282;2023-04-02T02:49:15;93770.81;;;7.92;100.00
35989;BME280;22064;42.672;23.282;2023-04-02T02:52:18;93770.84;;;7.97;100.00
35989;BME280;22064;42.672;23.282;2023-04-02T02:54:51;93771.72;;;8.08;100.00
35989;BME280;22064;42.672;23.282;2023-04-02T02:57:24;93772.94;;;8.00;100.00
35989;BME280;22064;42.672;23.282;2023-04-02T02:59:55;93773.97;;;7.99;100.00
35989;BME280;22064;42.672;23.282;2023-04-02T03:02:23;93766.41;;;7.93;100.00
35989;BME280;22064;42.672;23.282;2023-04-02T03:04:54;93772.16;;;8.00;100.00
35989;BME280;22064;42.672;23.282;2023-04-02T03:07:25;93773.56;;;8.13;100.00
35989;BME280;22064;42.672;23.282;2023-04-02T03:10:03;93773.75;;;8.06;100.00
35989;BME280;22064;42.672;23.282;2023-04-02T03:12:44;93776.69;;;7.82;100.00
35989;BME280;22064;42.672;23.282;2023-04-02T03:18:00;93772.78;;;7.80;100.00
35989;BME280;22064;42.672;23.282;2023-04-02T03:20:52;93780.22;;;8.03;100.00
35989;BME280;22064;42.672;23.282;2023-04-02T03:23:28;93781.31;;;8.07;100.00
35989;BME280;22064;42.672;23.282;2023-04-02T03:26:01;93783.56;;;7.99;100.00
35989;BME280;22064;42.672;23.282;2023-04-02T03:28:32;93782.19;;;7.91;100.00
35989;BME280;22064;42.672;23.282;2023-04-02T03:31:09;93784.13;;;8.01;100.00
35989;BME280;22064;42.672;23.282;2023-04-02T03:33:41;93786.09;;;7.94;100.00
35989;BME280;22064;42.672;23.282;2023-04-02T03:39:01;93785.78;;;7.85;100.00
35989;BME280;22064;42.672;23.282;2023-04-02T03:41:46;93788.81;;;7.77;100.00
35989;BME280;22064;42.672;23.282;2023-04-02T03:44:35;93791.00;;;7.90;100.00
35989;BME280;22064;42.672;23.282;2023-04-02T03:47:11;93796.47;;;7.94;100.00
35989;BME280;22064;42.672;23.282;2023-04-02T03:49:59;93791.28;;;7.94;100.00
35989;BME280;22064;42.672;23.282;2023-04-02T03:52:27;93792.63;;;7.96;100.00
35989;BME280;22064;42.672;23.282;2023-04-02T03:54:59;93788.41;;;7.90;100.00
35989;BME280;22064;42.672;23.282;2023-04-02T04:03:18;93789.34;;;7.79;100.00
35989;BME280;22064;42.672;23.282;2023-04-02T04:05:50;93786.00;;;7.56;100.00
35989;BME280;22064;42.672;23.282;2023-04-02T04:08:22;93788.41;;;7.63;100.00
35989;BME280;22064;42.672;23.282;2023-04-02T04:10:57;93795.94;;;7.64;100.00
35989;BME280;22064;42.672;23.282;2023-04-02T04:13:33;93791.25;;;7.61;100.00
35989;BME280;22064;42.672;23.282;2023-04-02T04:16:08;93796.63;;;7.55;100.00
35989;BME280;22064;42.672;23.282;2023-04-02T04:21:28;93809.38;;;7.61;100.00
35989;BME280;22064;42.672;23.282;2023-04-02T04:24:03;93802.69;;;7.66;100.00
35989;BME280;22064;42.672;23.282;2023-04-02T04:26:43;93809.38;;;7.61;100.00
35989;BME280;22064;42.672;23.282;2023-04-02T04:29:46;93810.94;;;7.62;100.00
35989;BME280;22064;42.672;23.282;2023-04-02T04:32:28;93815.63;;;7.66;100.00
35989;BME280;22064;42.672;23.282;2023-04-02T04:37:55;93825.09;;;7.77;100.00
35989;BME280;22064;42.672;23.282;2023-04-02T04:40:41;93814.19;;;7.53;100.00
35989;BME280;22064;42.672;23.282;2023-04-02T04:43:16;93830.16;;;7.23;100.00
35989;BME280;22064;42.672;23.282;2023-04-02T04:45:50;93820.69;;;6.89;100.00
35989;BME280;22064;42.672;23.282;2023-04-02T04:48:26;93821.66;;;6.66;100.00
35989;BME280;22064;42.672;23.282;2023-04-02T04:50:59;93836.22;;;6.72;100.00
35989;BME280;22064;42.672;23.282;2023-04-02T04:53:28;93830.91;;;6.62;100.00
35989;BME280;22064;42.672;23.282;2023-04-02T04:56:02;93824.50;;;6.65;100.00
35989;BME280;22064;42.672;23.282;2023-04-02T05:01:59;93844.53;;;6.75;100.00
35989;BME280;22064;42.672;23.282;2023-04-02T05:04:40;93834.81;;;6.82;100.00
35989;BME280;22064;42.672;23.282;2023-04-02T05:07:31;93836.38;;;6.83;100.00
35989;BME280;22064;42.672;23.282;2023-04-02T05:10:24;93841.34;;;6.67;100.00
35989;BME280;22064;42.672;23.282;2023-04-02T05:13:00;93835.31;;;6.62;100.00
35989;BME280;22064;42.672;23.282;2023-04-02T05:15:40;93843.47;;;6.70;100.00
35989;BME280;22064;42.672;23.282;2023-04-02T05:18:26;93827.22;;;6.75;100.00
35989;BME280;22064;42.672;23.282;2023-04-02T05:21:03;93825.41;;;6.76;100.00
35989;BME280;22064;42.672;23.282;2023-04-02T05:23:36;93851.13;;;6.82;100.00
35989;BME280;22064;42.672;23.282;2023-04-02T05:31:46;93849.91;;;7.07;100.00
35989;BME280;22064;42.672;23.282;2023-04-02T05:34:22;93856.78;;;7.18;100.00
35989;BME280;22064;42.672;23.282;2023-04-02T05:36:50;93857.16;;;7.27;100.00
35989;BME280;22064;42.672;23.282;2023-04-02T05:39:21;93856.91;;;7.28;100.00
35989;BME280;22064;42.672;23.282;2023-04-02T05:42:05;93861.97;;;7.40;100.00
35989;BME280;22064;42.672;23.282;2023-04-02T05:45:19;93863.84;;;7.67;100.00
35989;BME280;22064;42.672;23.282;2023-04-02T05:47:51;93860.03;;;7.74;100.00
35989;BME280;22064;42.672;23.282;2023-04-02T05:50:34;93864.19;;;7.75;100.00
35989;BME280;22064;42.672;23.282;2023-04-02T05:53:19;93862.91;;;8.00;100.00
35989;BME280;22064;42.672;23.282;2023-04-02T05:55:56;93877.53;;;8.11;100.00
35989;BME280;22064;42.672;23.282;2023-04-02T05:58:43;93871.25;;;8.34;100.00
35989;BME280;22064;42.672;23.282;2023-04-02T06:01:19;93875.91;;;8.59;100.00
35989;BME280;22064;42.672;23.282;2023-04-02T06:03:54;93873.31;;;8.96;100.00
35989;BME280;22064;42.672;23.282;2023-04-02T06:06:45;93872.69;;;8.79;100.00
35989;BME280;22064;42.672;23.282;2023-04-02T06:14:57;93872.53;;;8.96;100.00
35989;BME280;22064;42.672;23.282;2023-04-02T06:17:26;93879.66;;;9.11;100.00
35989;BME280;22064;42.672;23.282;2023-04-02T06:19:55;93877.56;;;9.08;100.00
35989;BME280;22064;42.672;23.282;2023-04-02T06:22:29;93878.75;;;9.37;100.00
35989;BME280;22064;42.672;23.282;2023-04-02T06:25:02;93879.66;;;9.11;100.00
35989;BME280;22064;42.672;23.282;2023-04-02T06:27:37;93881.16;;;9.01;100.00
35989;BME280;22064;42.672;23.282;2023-04-02T06:30:16;93879.97;;;9.19;100.00
35989;BME280;22064;42.672;23.282;2023-04-02T06:32:45;93878.16;;;9.25;100.00
35989;BME280;22064;42.672;23.282;2023-04-02T06:35:13;93872.53;;;9.38;100.00
35989;BME280;22064;42.672;23.282;2023-04-02T06:37:44;93871.91;;;9.79;100.00
35989;BME280;22064;42.672;23.282;2023-04-02T06:42:54;93876.75;;;10.43;100.00
35989;BME280;22064;42.672;23.282;2023-04-02T06:45:45;93866.34;;;10.48;100.00
35989;BME280;22064;42.672;23.282;2023-04-02T06:48:30;93871.84;;;10.72;100.00
35989;BME280;22064;42.672;23.282;2023-04-02T06:51:05;93878.88;;;10.72;100.00
35989;BME280;22064;42.672;23.282;2023-04-02T06:53:38;93881.19;;;10.83;100.00
35989;BME280;22064;42.672;23.282;2023-04-02T06:56:46;93887.69;;;10.96;100.00
35989;BME280;22064;42.672;23.282;2023-04-02T06:59:18;93886.13;;;11.05;100.00
35989;BME280;22064;42.672;23.282;2023-04-02T07:02:11;93893.13;;;11.15;100.00
35989;BME280;22064;42.672;23.282;2023-04-02T07:04:42;93883.78;;;11.04;100.00
35989;BME280;22064;42.672;23.282;2023-04-02T07:07:08;93893.16;;;11.10;100.00
35989;BME280;22064;42.672;23.282;2023-04-02T07:09:38;93890.78;;;11.24;100.00
35989;BME280;22064;42.672;23.282;2023-04-02T07:12:12;93883.78;;;11.04;100.00
35989;BME280;22064;42.672;23.282;2023-04-02T07:14:39;93894.44;;;11.28;100.00
35989;BME280;22064;42.672;23.282;2023-04-02T07:17:06;93886.31;;;11.45;100.00
35989;BME280;22064;42.672;23.282;2023-04-02T07:19:32;93900.16;;;11.40;100.00
35989;BME280;22064;42.672;23.282;2023-04-02T07:21:59;93899.66;;;11.02;75.96
35989;BME280;22064;42.672;23.282;2023-04-02T07:24:30;93907.47;;;11.18;74.35
35989;BME280;22064;42.672;23.282;2023-04-02T07:26:56;93910.06;;;11.38;68.14
35989;BME280;22064;42.672;23.282;2023-04-02T07:29:22;93902.00;;;11.29;69.04
35989;BME280;22064;42.672;23.282;2023-04-02T07:31:49;93899.16;;;11.10;68.99
35989;BME280;22064;42.672;23.282;2023-04-02T07:34:17;93906.94;;;11.26;69.29
35989;BME280;22064;42.672;23.282;2023-04-02T07:36:43;93909.81;;;11.19;67.93
35989;BME280;22064;42.672;23.282;2023-04-02T07:39:09;93921.81;;;11.20;68.43
35989;BME280;22064;42.672;23.282;2023-04-02T07:41:55;93903.03;;;11.23;68.63
35989;BME280;22064;42.672;23.282;2023-04-02T07:44:21;93913.66;;;11.52;67.45
35989;BME280;22064;42.672;23.282;2023-04-02T07:46:47;93913.38;;;11.64;66.43
35989;BME280;22064;42.672;23.282;2023-04-02T07:49:13;93914.84;;;11.96;65.47
35989;BME280;22064;42.672;23.282;2023-04-02T07:51:40;93905.88;;;12.17;63.88
35989;BME280;22064;42.672;23.282;2023-04-02T07:54:06;93898.81;;;12.18;63.88
35989;BME280;22064;42.672;23.282;2023-04-02T07:56:35;93922.06;;;12.14;63.99
35989;BME280;22064;42.672;23.282;2023-04-02T07:59:02;93905.78;;;11.68;67.67
35989;BME280;22064;42.672;23.282;2023-04-02T08:01:29;93919.16;;;11.56;68.14
35989;BME280;22064;42.672;23.282;2023-04-02T08:04:01;93915.03;;;11.19;68.03
35989;BME280;22064;42.672;23.282;2023-04-02T08:06:27;93912.41;;;11.24;70.01
35989;BME280;22064;42.672;23.282;2023-04-02T08:08:53;93916.28;;;11.42;70.89
35989;BME280;22064;42.672;23.282;2023-04-02T08:11:19;93920.19;;;11.45;70.64
35989;BME280;22064;42.672;23.282;2023-04-02T08:13:45;93924.66;;;11.34;72.58
35989;BME280;22064;42.672;23.282;2023-04-02T08:16:11;93925.38;;;11.55;68.83
35989;BME280;22064;42.672;23.282;2023-04-02T08:18:37;93923.09;;;11.33;71.07
35989;BME280;22064;42.672;23.282;2023-04-02T08:21:09;93928.28;;;11.48;70.48
35989;BME280;22064;42.672;23.282;2023-04-02T08:23:36;93932.97;;;11.46;70.45
35989;BME280;22064;42.672;23.282;2023-04-02T08:26:03;93936.06;;;11.59;70.52
35989;BME280;22064;42.672;23.282;2023-04-02T08:28:29;93918.06;;;11.67;69.94
35989;BME280;22064;42.672;23.282;2023-04-02T08:30:55;93929.75;;;11.90;67.40
35989;BME280;22064;42.672;23.282;2023-04-02T08:33:22;93935.66;;;12.11;64.83
35989;BME280;22064;42.672;23.282;2023-04-02T08:35:48;93931.38;;;12.36;62.00
35989;BME280;22064;42.672;23.282;2023-04-02T08:38:19;93928.03;;;12.69;61.52
35989;BME280;22064;42.672;23.282;2023-04-02T08:40:49;93943.00;;;11.99;62.30
35989;BME280;22064;42.672;23.282;2023-04-02T08:48:56;93939.31;;;12.15;64.91
35989;BME280;22064;42.672;23.282;2023-04-02T08:51:25;93932.34;;;12.45;63.21
35989;BME280;22064;42.672;23.282;2023-04-02T08:53:59;93933.81;;;12.17;57.82
35989;BME280;22064;42.672;23.282;2023-04-02T08:56:54;93934.09;;;12.10;57.81
35989;BME280;22064;42.672;23.282;2023-04-02T08:59:38;93937.66;;;12.35;57.65
35989;BME280;22064;42.672;23.282;2023-04-02T09:04:37;93934.16;;;12.50;56.05
35989;BME280;22064;42.672;23.282;2023-04-02T09:07:10;93936.28;;;12.87;53.90
35989;BME280;22064;42.672;23.282;2023-04-02T09:09:37;93926.09;;;12.85;54.23
35989;BME280;22064;42.672;23.282;2023-04-02T09:12:03;93928.00;;;12.75;54.63
35989;BME280;22064;42.672;23.282;2023-04-02T09:14:41;93926.50;;;13.03;52.76
35989;BME280;22064;42.672;23.282;2023-04-02T09:17:18;93930.53;;;13.19;53.21
35989;BME280;22064;42.672;23.282;2023-04-02T09:22:47;93934.41;;;12.53;52.28
35989;BME280;22064;42.672;23.282;2023-04-02T09:25:24;93938.91;;;12.42;54.08
35989;BME280;22064;42.672;23.282;2023-04-02T09:28:03;93930.03;;;12.38;53.58
35989;BME280;22064;42.672;23.282;2023-04-02T09:33:07;93921.88;;;12.50;54.22
35989;BME280;22064;42.672;23.282;2023-04-02T09:35:56;93918.91;;;12.67;53.63
35989;BME280;22064;42.672;23.282;2023-04-02T09:38:27;93925.97;;;12.66;52.92
35989;BME280;22064;42.672;23.282;2023-04-02T09:41:01;93918.91;;;12.67;52.34
35989;BME280;22064;42.672;23.282;2023-04-02T09:43:33;93921.34;;;12.53;53.78
35989;BME280;22064;42.672;23.282;2023-04-02T09:51:15;93915.06;;;13.23;51.54
35989;BME280;22064;42.672;23.282;2023-04-02T09:53:45;93903.84;;;13.22;51.80
35989;BME280;22064;42.672;23.282;2023-04-02T09:56:22;93909.53;;;12.95;51.02
35989;BME280;22064;42.672;23.282;2023-04-02T09:59:17;93908.72;;;13.34;50.80
35989;BME280;22064;42.672;23.282;2023-04-02T10:04:40;93903.75;;;13.32;50.51
35989;BME280;22064;42.672;23.282;2023-04-02T10:07:35;93893.66;;;13.50;50.30
35989;BME280;22064;42.672;23.282;2023-04-02T10:10:21;93901.88;;;13.86;49.46
35989;BME280;22064;42.672;23.282;2023-04-02T10:15:45;93882.38;;;13.97;48.37
35989;BME280;22064;42.672;23.282;2023-04-02T10:21:16;93890.56;;;14.33;48.93
35989;BME280;22064;42.672;23.282;2023-04-02T10:23:43;93882.63;;;14.39;48.13
35989;BME280;22064;42.672;23.282;2023-04-02T10:28:46;93880.56;;;14.17;52.29
35989;BME280;22064;42.672;23.282;2023-04-02T10:32:09;93889.34;;;14.26;54.40
35989;BME280;22064;42.672;23.282;2023-04-02T10:34:34;93889.00;;;14.51;54.51
35989;BME280;22064;42.672;23.282;2023-04-02T10:37:09;93883.91;;;14.41;53.87
35989;BME280;22064;42.672;23.282;2023-04-02T10:39:40;93893.22;;;14.09;51.13
35989;BME280;22064;42.672;23.282;2023-04-02T10:52:38;93880.53;;;12.97;54.56
35989;BME280;22064;42.672;23.282;2023-04-02T10:55:14;93885.97;;;13.05;55.19
35989;BME280;22064;42.672;23.282;2023-04-02T10:57:42;93887.38;;;13.22;55.34
35989;BME280;22064;42.672;23.282;2023-04-02T11:03:09;93876.72;;;13.90;54.85
35989;BME280;22064;42.672;23.282;2023-04-02T11:10:54;93873.78;;;13.25;56.34
35989;BME280;22064;42.672;23.282;2023-04-02T11:13:23;93893.22;;;13.67;55.57
35989;BME280;22064;42.672;23.282;2023-04-02T11:15:51;93880.38;;;13.46;54.13
35989;BME280;22064;42.672;23.282;2023-04-02T11:18:26;93889.94;;;13.27;54.70
35989;BME280;22064;42.672;23.282;2023-04-02T11:21:00;93884.34;;;13.09;54.99
35989;BME280;22064;42.672;23.282;2023-04-02T11:23:32;93884.69;;;13.32;55.19
35989;BME280;22064;42.672;23.282;2023-04-02T11:26:40;93885.34;;;13.43;54.44
35989;BME280;22064;42.672;23.282;2023-04-02T11:29:21;93868.16;;;13.60;54.24
35989;BME280;22064;42.672;23.282;2023-04-02T11:31:50;93866.59;;;13.83;52.93
35989;BME280;22064;42.672;23.282;2023-04-02T11:34:57;93881.63;;;13.73;51.83
35989;BME280;22064;42.672;23.282;2023-04-02T11:37:39;93876.41;;;13.73;51.63
35989;BME280;22064;42.672;23.282;2023-04-02T11:42:40;93860.53;;;14.07;49.80
35989;BME280;22064;42.672;23.282;2023-04-02T11:50:37;93860.13;;;14.00;51.24
35989;BME280;22064;42.672;23.282;2023-04-02T11:53:04;93858.78;;;14.21;51.34
35989;BME280;22064;42.672;23.282;2023-04-02T11:55:43;93846.31;;;13.94;50.99
35989;BME280;22064;42.672;23.282;2023-04-02T12:06:40;93841.69;;;13.86;49.61
35989;BME280;22064;42.672;23.282;2023-04-02T12:09:19;93864.44;;;14.09;50.35
35989;BME280;22064;42.672;23.282;2023-04-02T12:11:47;93860.63;;;14.02;50.11
35989;BME280;22064;42.672;23.282;2023-04-02T12:17:23;93860.53;;;13.88;49.64
35989;BME280;22064;42.672;23.282;2023-04-02T12:19:52;93861.75;;;14.15;49.57
35989;BME280;22064;42.672;23.282;2023-04-02T12:22:22;93855.50;;;14.48;49.16
35989;BME280;22064;42.672;23.282;2023-04-02T12:24:51;93848.84;;;14.75;47.44
35989;BME280;22064;42.672;23.282;2023-04-02T12:27:24;93848.78;;;14.42;47.57
35989;BME280;22064;42.672;23.282;2023-04-02T12:29:53;93853.75;;;14.63;48.16
35989;BME280;22064;42.672;23.282;2023-04-02T12:32:24;93849.66;;;14.57;47.49
35989;BME280;22064;42.672;23.282;2023-04-02T12:34:53;93852.22;;;14.62;46.23
35989;BME280;22064;42.672;23.282;2023-04-02T12:37:25;93854.41;;;14.54;46.82
35989;BME280;22064;42.672;23.282;2023-04-02T12:39:58;93843.66;;;14.56;46.25
35989;BME280;22064;42.672;23.282;2023-04-02T12:42:28;93847.81;;;14.57;46.27
35989;BME280;22064;42.672;23.282;2023-04-02T12:44:54;93832.00;;;14.95;46.57
35989;BME280;22064;42.672;23.282;2023-04-02T12:47:21;93847.72;;;14.95;45.45
35989;BME280;22064;42.672;23.282;2023-04-02T12:49:47;93832.06;;;14.76;45.42
35989;BME280;22064;42.672;23.282;2023-04-02T12:52:16;93822.94;;;15.34;45.31
35989;BME280;22064;42.672;23.282;2023-04-02T12:54:48;93842.38;;;15.33;44.85
35989;BME280;22064;42.672;23.282;2023-04-02T12:59:54;93822.25;;;15.14;44.72
35989;BME280;22064;42.672;23.282;2023-04-02T13:02:29;93820.72;;;15.27;44.00
35989;BME280;22064;42.672;23.282;2023-04-02T13:04:57;93828.38;;;15.37;43.84
35989;BME280;22064;42.672;23.282;2023-04-02T13:07:31;93817.22;;;15.73;43.25
35989;BME280;22064;42.672;23.282;2023-04-02T13:10:00;93818.94;;;15.50;44.02
35989;BME280;22064;42.672;23.282;2023-04-02T13:12:39;93810.78;;;15.24;44.00
35989;BME280;22064;42.672;23.282;2023-04-02T13:15:25;93820.22;;;15.25;43.81
35989;BME280;22064;42.672;23.282;2023-04-02T13:20:41;93816.41;;;15.04;43.26
35989;BME280;22064;42.672;23.282;2023-04-02T13:23:31;93824.09;;;15.28;44.29
35989;BME280;22064;42.672;23.282;2023-04-02T13:25:58;93817.41;;;15.49;42.87
35989;BME280;22064;42.672;23.282;2023-04-02T13:28:24;93824.09;;;15.55;42.83
35989;BME280;22064;42.672;23.282;2023-04-02T13:30:50;93813.81;;;15.86;42.81
35989;BME280;22064;42.672;23.282;2023-04-02T13:33:17;93806.03;;;15.12;42.86
35989;BME280;22064;42.672;23.282;2023-04-02T13:35:43;93812.91;;;15.22;43.10
35989;BME280;22064;42.672;23.282;2023-04-02T13:38:10;93820.22;;;14.78;43.45
35989;BME280;22064;42.672;23.282;2023-04-02T13:40:36;93809.28;;;14.58;43.62
35989;BME280;22064;42.672;23.282;2023-04-02T13:43:03;93797.84;;;14.53;43.84
35989;BME280;22064;42.672;23.282;2023-04-02T13:45:35;93811.13;;;14.57;43.60
35989;BME280;22064;42.672;23.282;2023-04-02T13:48:03;93821.19;;;14.50;42.58
35989;BME280;22064;42.672;23.282;2023-04-02T13:50:31;93814.63;;;14.52;42.55
35989;BME280;22064;42.672;23.282;2023-04-02T13:53:03;93805.56;;;14.77;42.34
35989;BME280;22064;42.672;23.282;2023-04-02T13:55:30;93803.00;;;14.59;42.32
35989;BME280;22064;42.672;23.282;2023-04-02T13:57:59;93794.38;;;14.39;42.61
35989;BME280;22064;42.672;23.282;2023-04-02T14:00:25;93807.25;;;14.54;42.19
35989;BME280;22064;42.672;23.282;2023-04-02T14:03:19;93807.63;;;14.81;42.04
35989;BME280;22064;42.672;23.282;2023-04-02T14:06:06;93806.66;;;14.90;42.19
35989;BME280;22064;42.672;23.282;2023-04-02T14:32:19;93807.69;;;15.77;39.86
35989;BME280;22064;42.672;23.282;2023-04-02T14:40:13;93802.53;;;15.31;40.39
35989;BME280;22064;42.672;23.282;2023-04-02T14:42:56;93794.13;;;14.87;40.97
35989;BME280;22064;42.672;23.282;2023-04-02T14:50:53;93800.09;;;14.60;41.52
35989;BME280;22064;42.672;23.282;2023-04-02T14:53:31;93798.03;;;14.57;42.17
35989;BME280;22064;42.672;23.282;2023-04-02T14:56:02;93803.97;;;14.63;41.76
35989;BME280;22064;42.672;23.282;2023-04-02T14:58:34;93796.34;;;14.47;42.46
35989;BME280;22064;42.672;23.282;2023-04-02T15:01:02;93803.00;;;14.59;42.09
35989;BME280;22064;42.672;23.282;2023-04-02T15:03:36;93796.59;;;16.75;39.26
35989;BME280;22064;42.672;23.282;2023-04-02T15:06:14;93807.31;;;18.77;35.78
35989;BME280;22064;42.672;23.282;2023-04-02T15:08:48;93795.84;;;21.38;32.06
35989;BME280;22064;42.672;23.282;2023-04-02T15:13:59;93828.06;;;18.87;33.04
35989;BME280;22064;42.672;23.282;2023-04-02T15:16:29;93806.72;;;19.95;32.27
35989;BME280;22064;42.672;23.282;2023-04-02T15:18:59;93808.38;;;19.31;32.46
35989;BME280;22064;42.672;23.282;2023-04-02T15:24:14;93813.97;;;18.57;33.42
35989;BME280;22064;42.672;23.282;2023-04-02T15:26:50;93817.03;;;18.07;34.77
35989;BME280;22064;42.672;23.282;2023-04-02T15:35:44;93810.31;;;16.95;36.26
35989;BME280;22064;42.672;23.282;2023-04-02T15:44:07;93811.00;;;16.19;37.17
35989;BME280;22064;42.672;23.282;2023-04-02T15:46:49;93820.41;;;15.15;39.49
35989;BME280;22064;42.672;23.282;2023-04-02T15:49:29;93817.00;;;14.68;39.72
35989;BME280;22064;42.672;23.282;2023-04-02T15:54:51;93827.09;;;15.21;38.74
35989;BME280;22064;42.672;23.282;2023-04-02T16:00:19;93829.22;;;17.76;34.14
35989;BME280;22064;42.672;23.282;2023-04-02T16:05:31;93834.41;;;18.25;33.17
35989;BME280;22064;42.672;23.282;2023-04-02T16:10:35;93834.38;;;17.11;34.14
35989;BME280;22064;42.672;23.282;2023-04-02T16:13:15;93835.47;;;16.87;34.96
35989;BME280;22064;42.672;23.282;2023-04-02T16:15:49;93826.69;;;17.54;34.03
35989;BME280;22064;42.672;23.282;2023-04-02T16:21:02;93837.81;;;16.89;35.51
35989;BME280;22064;42.672;23.282;2023-04-02T16:23:38;93834.09;;;17.52;33.71
35989;BME280;22064;42.672;23.282;2023-04-02T16:31:47;93844.06;;;16.79;35.34
35989;BME280;22064;42.672;23.282;2023-04-02T16:37:11;93847.06;;;16.27;36.55
35989;BME280;22064;42.672;23.282;2023-04-02T16:45:02;93860.44;;;15.62;39.25
35989;BME280;22064;42.672;23.282;2023-04-02T16:47:52;93850.31;;;14.81;40.69
35989;BME280;22064;42.672;23.282;2023-04-02T16:50:56;93844.41;;;14.38;41.94
35989;BME280;22064;42.672;23.282;2023-04-02T16:53:41;93854.94;;;14.14;42.87
35989;BME280;22064;42.672;23.282;2023-04-02T16:59:13;93866.59;;;13.35;44.32
35989;BME280;22064;42.672;23.282;2023-04-02T17:01:51;93864.09;;;13.20;44.83
35989;BME280;22064;42.672;23.282;2023-04-02T17:10:42;93869.25;;;12.72;46.22
35989;BME280;22064;42.672;23.282;2023-04-02T17:15:41;93880.91;;;12.45;47.20
35989;BME280;22064;42.672;23.282;2023-04-02T17:18:17;93875.00;;;12.35;47.16
35989;BME280;22064;42.672;23.282;2023-04-02T17:20:47;93886.75;;;12.27;48.04
35989;BME280;22064;42.672;23.282;2023-04-02T17:23:15;93880.81;;;12.21;48.50
35989;BME280;22064;42.672;23.282;2023-04-02T17:25:53;93890.50;;;12.11;49.04